sensor_id;sensor_type;location;lat;lon;timestamp;temperature;humidity
28071;DHT22;15383;48.408;9.968;2023-07-31T00:01:46;19.40;92.00
28071;DHT22;15383;48.408;9.968;2023-07-31T00:04:11;19.40;92.40
28071;DHT22;15383;48.408;9.968;2023-07-31T00:06:37;19.40;92.10
28071;DHT22;15383;48.408;9.968;2023-07-31T00:09:03;19.40;92.10
28071;DHT22;15383;48.408;9.968;2023-07-31T00:11:28;19.40;92.10
28071;DHT22;15383;48.408;9.968;2023-07-31T00:13:54;19.30;92.00
28071;DHT22;15383;48.408;9.968;2023-07-31T00:16:20;19.30;92.00
28071;DHT22;15383;48.408;9.968;2023-07-31T00:18:45;19.30;92.00
28071;DHT22;15383;48.408;9.968;2023-07-31T00:21:11;19.40;92.00
28071;DHT22;15383;48.408;9.968;2023-07-31T00:23:36;19.30;92.00
28071;DHT22;15383;48.408;9.968;2023-07-31T00:26:02;19.40;92.00
28071;DHT22;15383;48.408;9.968;2023-07-31T00:28:27;19.30;92.10
28071;DHT22;15383;48.408;9.968;2023-07-31T00:30:54;19.30;92.00
28071;DHT22;15383;48.408;9.968;2023-07-31T00:33:19;19.40;92.00
28071;DHT22;15383;48.408;9.968;2023-07-31T00:35:45;19.40;92.00
28071;DHT22;15383;48.408;9.968;2023-07-31T00:38:11;19.30;92.00
28071;DHT22;15383;48.408;9.968;2023-07-31T00:40:37;19.30;92.00
28071;DHT22;15383;48.408;9.968;2023-07-31T00:43:03;19.30;92.00
28071;DHT22;15383;48.408;9.968;2023-07-31T00:45:29;19.30;92.00
28071;DHT22;15383;48.408;9.968;2023-07-31T00:47:55;19.30;92.00
28071;DHT22;15383;48.408;9.968;2023-07-31T00:50:22;19.30;92.00
28071;DHT22;15383;48.408;9.968;2023-07-31T00:52:49;19.30;92.30
28071;DHT22;15383;48.408;9.968;2023-07-31T00:55:15;19.30;92.00
28071;DHT22;15383;48.408;9.968;2023-07-31T00:57:42;19.30;92.00
28071;DHT22;15383;48.408;9.968;2023-07-31T01:00:08;19.30;92.00
28071;DHT22;15383;48.408;9.968;2023-07-31T01:02:35;19.30;92.00
28071;DHT22;15383;48.408;9.968;2023-07-31T01:05:02;19.30;91.90
28071;DHT22;15383;48.408;9.968;2023-07-31T01:07:59;19.30;91.90
28071;DHT22;15383;48.408;9.968;2023-07-31T01:10:32;19.30;91.90
28071;DHT22;15383;48.408;9.968;2023-07-31T01:13:00;19.30;91.90
28071;DHT22;15383;48.408;9.968;2023-07-31T01:15:25;19.30;91.90
28071;DHT22;15383;48.408;9.968;2023-07-31T01:17:51;19.30;91.90
28071;DHT22;15383;48.408;9.968;2023-07-31T01:20:25;19.30;91.90
28071;DHT22;15383;48.408;9.968;2023-07-31T01:28:19;19.30;91.90
28071;DHT22;15383;48.408;9.968;2023-07-31T01:30:48;19.30;91.90
28071;DHT22;15383;48.408;9.968;2023-07-31T01:33:15;19.20;91.90
28071;DHT22;15383;48.408;9.968;2023-07-31T01:35:44;19.20;91.90
28071;DHT22;15383;48.408;9.968;2023-07-31T01:38:10;19.20;91.80
28071;DHT22;15383;48.408;9.968;2023-07-31T01:40:36;19.30;91.90
28071;DHT22;15383;48.408;9.968;2023-07-31T01:43:01;19.20;91.80
28071;DHT22;15383;48.408;9.968;2023-07-31T01:45:27;19.30;91.80
28071;DHT22;15383;48.408;9.968;2023-07-31T01:47:58;19.20;91.80
28071;DHT22;15383;48.408;9.968;2023-07-31T01:50:24;19.30;91.80
28071;DHT22;15383;48.408;9.968;2023-07-31T01:52:50;19.20;91.80
28071;DHT22;15383;48.408;9.968;2023-07-31T01:55:15;19.30;91.80
28071;DHT22;15383;48.408;9.968;2023-07-31T01:57:41;19.20;91.80
28071;DHT22;15383;48.408;9.968;2023-07-31T02:00:07;19.20;91.80
28071;DHT22;15383;48.408;9.968;2023-07-31T02:02:33;19.30;91.80
28071;DHT22;15383;48.408;9.968;2023-07-31T02:04:58;19.30;91.80
28071;DHT22;15383;48.408;9.968;2023-07-31T02:07:24;19.30;91.80
28071;DHT22;15383;48.408;9.968;2023-07-31T02:09:50;19.20;91.80
28071;DHT22;15383;48.408;9.968;2023-07-31T02:12:15;19.20;91.80
28071;DHT22;15383;48.408;9.968;2023-07-31T02:14:41;19.20;91.80
28071;DHT22;15383;48.408;9.968;2023-07-31T02:17:07;19.20;91.70
28071;DHT22;15383;48.408;9.968;2023-07-31T02:19:32;19.20;91.70
28071;DHT22;15383;48.408;9.968;2023-07-31T02:21:58;19.20;91.70
28071;DHT22;15383;48.408;9.968;2023-07-31T02:24:24;19.20;91.70
28071;DHT22;15383;48.408;9.968;2023-07-31T02:26:50;19.20;91.70
28071;DHT22;15383;48.408;9.968;2023-07-31T02:29:15;19.20;91.70
28071;DHT22;15383;48.408;9.968;2023-07-31T02:31:41;19.20;91.70
28071;DHT22;15383;48.408;9.968;2023-07-31T02:34:06;19.20;91.70
28071;DHT22;15383;48.408;9.968;2023-07-31T02:36:32;19.20;91.70
28071;DHT22;15383;48.408;9.968;2023-07-31T02:38:58;19.20;91.70
28071;DHT22;15383;48.408;9.968;2023-07-31T02:41:23;19.20;92.00
28071;DHT22;15383;48.408;9.968;2023-07-31T02:43:49;19.20;91.60
28071;DHT22;15383;48.408;9.968;2023-07-31T02:46:14;19.20;91.60
28071;DHT22;15383;48.408;9.968;2023-07-31T02:48:40;19.20;91.60
28071;DHT22;15383;48.408;9.968;2023-07-31T02:51:05;19.20;91.60
28071;DHT22;15383;48.408;9.968;2023-07-31T02:53:31;19.10;91.60
28071;DHT22;15383;48.408;9.968;2023-07-31T02:55:57;19.20;91.60
28071;DHT22;15383;48.408;9.968;2023-07-31T02:58:22;19.20;91.60
28071;DHT22;15383;48.408;9.968;2023-07-31T03:00:48;19.20;91.60
28071;DHT22;15383;48.408;9.968;2023-07-31T03:03:13;19.20;91.50
28071;DHT22;15383;48.408;9.968;2023-07-31T03:05:39;19.20;91.50
28071;DHT22;15383;48.408;9.968;2023-07-31T03:08:05;19.20;91.50
28071;DHT22;15383;48.408;9.968;2023-07-31T03:10:31;19.20;91.50
28071;DHT22;15383;48.408;9.968;2023-07-31T03:12:56;19.20;91.50
28071;DHT22;15383;48.408;9.968;2023-07-31T03:15:22;19.10;91.50
28071;DHT22;15383;48.408;9.968;2023-07-31T03:17:50;19.20;91.50
28071;DHT22;15383;48.408;9.968;2023-07-31T03:20:16;19.10;91.40
28071;DHT22;15383;48.408;9.968;2023-07-31T03:22:42;19.10;91.40
28071;DHT22;15383;48.408;9.968;2023-07-31T03:25:07;19.10;91.40
28071;DHT22;15383;48.408;9.968;2023-07-31T03:27:35;19.10;91.40
28071;DHT22;15383;48.408;9.968;2023-07-31T03:30:00;19.10;91.40
28071;DHT22;15383;48.408;9.968;2023-07-31T03:32:26;19.10;91.40
28071;DHT22;15383;48.408;9.968;2023-07-31T03:34:52;19.10;91.40
28071;DHT22;15383;48.408;9.968;2023-07-31T03:37:17;19.10;91.40
28071;DHT22;15383;48.408;9.968;2023-07-31T03:39:43;19.10;91.40
28071;DHT22;15383;48.408;9.968;2023-07-31T03:42:08;19.10;91.40
28071;DHT22;15383;48.408;9.968;2023-07-31T03:44:34;19.10;91.40
28071;DHT22;15383;48.408;9.968;2023-07-31T03:46:59;19.10;91.40
28071;DHT22;15383;48.408;9.968;2023-07-31T03:49:25;19.10;91.40
28071;DHT22;15383;48.408;9.968;2023-07-31T03:51:51;19.10;91.40
28071;DHT22;15383;48.408;9.968;2023-07-31T03:54:16;19.10;91.40
28071;DHT22;15383;48.408;9.968;2023-07-31T03:56:42;19.10;91.40
28071;DHT22;15383;48.408;9.968;2023-07-31T03:59:07;19.10;91.40
28071;DHT22;15383;48.408;9.968;2023-07-31T04:01:33;19.10;91.40
28071;DHT22;15383;48.408;9.968;2023-07-31T04:03:59;19.80;91.60
28071;DHT22;15383;48.408;9.968;2023-07-31T04:06:24;19.10;91.40
28071;DHT22;15383;48.408;9.968;2023-07-31T04:08:50;19.10;91.40
28071;DHT22;15383;48.408;9.968;2023-07-31T04:11:15;19.10;91.30
28071;DHT22;15383;48.408;9.968;2023-07-31T04:13:41;19.10;91.30
28071;DHT22;15383;48.408;9.968;2023-07-31T04:16:06;19.10;91.30
28071;DHT22;15383;48.408;9.968;2023-07-31T04:18:32;19.10;91.40
28071;DHT22;15383;48.408;9.968;2023-07-31T04:20:58;19.10;91.30
28071;DHT22;15383;48.408;9.968;2023-07-31T04:23:25;19.10;91.40
28071;DHT22;15383;48.408;9.968;2023-07-31T04:25:53;19.10;91.40
28071;DHT22;15383;48.408;9.968;2023-07-31T04:28:19;19.10;91.40
28071;DHT22;15383;48.408;9.968;2023-07-31T04:30:45;19.10;91.40
28071;DHT22;15383;48.408;9.968;2023-07-31T04:33:10;19.10;91.40
28071;DHT22;15383;48.408;9.968;2023-07-31T04:35:36;19.10;91.40
28071;DHT22;15383;48.408;9.968;2023-07-31T04:38:02;19.10;91.40
28071;DHT22;15383;48.408;9.968;2023-07-31T04:40:27;19.10;91.40
28071;DHT22;15383;48.408;9.968;2023-07-31T04:42:53;19.10;91.40
28071;DHT22;15383;48.408;9.968;2023-07-31T04:45:18;19.10;91.40
28071;DHT22;15383;48.408;9.968;2023-07-31T04:47:44;19.10;91.40
28071;DHT22;15383;48.408;9.968;2023-07-31T04:50:10;19.10;91.40
28071;DHT22;15383;48.408;9.968;2023-07-31T04:52:35;19.00;91.20
28071;DHT22;15383;48.408;9.968;2023-07-31T04:55:01;19.10;91.20
28071;DHT22;15383;48.408;9.968;2023-07-31T04:57:27;19.10;91.20
28071;DHT22;15383;48.408;9.968;2023-07-31T04:59:52;19.10;91.20
28071;DHT22;15383;48.408;9.968;2023-07-31T05:02:18;19.10;91.30
28071;DHT22;15383;48.408;9.968;2023-07-31T05:04:43;19.10;91.30
28071;DHT22;15383;48.408;9.968;2023-07-31T05:07:09;19.10;91.30
28071;DHT22;15383;48.408;9.968;2023-07-31T05:09:34;19.10;91.30
28071;DHT22;15383;48.408;9.968;2023-07-31T05:12:00;19.10;91.30
28071;DHT22;15383;48.408;9.968;2023-07-31T05:14:26;19.10;91.30
28071;DHT22;15383;48.408;9.968;2023-07-31T05:16:52;19.10;91.40
28071;DHT22;15383;48.408;9.968;2023-07-31T05:19:18;19.10;91.30
28071;DHT22;15383;48.408;9.968;2023-07-31T05:21:43;19.10;91.40
28071;DHT22;15383;48.408;9.968;2023-07-31T05:24:10;19.10;91.40
28071;DHT22;15383;48.408;9.968;2023-07-31T05:26:35;19.10;91.40
28071;DHT22;15383;48.408;9.968;2023-07-31T05:29:01;19.10;91.40
28071;DHT22;15383;48.408;9.968;2023-07-31T05:31:26;19.10;91.40
28071;DHT22;15383;48.408;9.968;2023-07-31T05:33:52;19.10;91.40
28071;DHT22;15383;48.408;9.968;2023-07-31T05:36:18;19.10;91.50
28071;DHT22;15383;48.408;9.968;2023-07-31T05:38:43;19.10;91.50
28071;DHT22;15383;48.408;9.968;2023-07-31T05:41:11;19.10;91.50
28071;DHT22;15383;48.408;9.968;2023-07-31T05:43:37;19.10;91.50
28071;DHT22;15383;48.408;9.968;2023-07-31T05:46:02;19.10;91.50
28071;DHT22;15383;48.408;9.968;2023-07-31T05:48:28;19.10;91.50
28071;DHT22;15383;48.408;9.968;2023-07-31T05:50:54;19.10;91.60
28071;DHT22;15383;48.408;9.968;2023-07-31T05:53:19;19.10;91.60
28071;DHT22;15383;48.408;9.968;2023-07-31T05:55:45;19.10;91.60
28071;DHT22;15383;48.408;9.968;2023-07-31T05:58:11;19.10;91.60
28071;DHT22;15383;48.408;9.968;2023-07-31T06:00:36;19.10;91.60
28071;DHT22;15383;48.408;9.968;2023-07-31T06:03:02;19.10;91.60
28071;DHT22;15383;48.408;9.968;2023-07-31T06:05:28;19.20;91.70
28071;DHT22;15383;48.408;9.968;2023-07-31T06:07:55;19.10;91.70
28071;DHT22;15383;48.408;9.968;2023-07-31T06:10:21;19.20;91.70
28071;DHT22;15383;48.408;9.968;2023-07-31T06:12:46;19.20;91.70
28071;DHT22;15383;48.408;9.968;2023-07-31T06:15:12;19.20;91.80
28071;DHT22;15383;48.408;9.968;2023-07-31T06:17:38;19.20;91.80
28071;DHT22;15383;48.408;9.968;2023-07-31T06:20:05;19.20;91.70
28071;DHT22;15383;48.408;9.968;2023-07-31T06:22:31;18.90;90.50
28071;DHT22;15383;48.408;9.968;2023-07-31T06:24:57;18.70;90.30
28071;DHT22;15383;48.408;9.968;2023-07-31T06:27:23;18.50;90.60
28071;DHT22;15383;48.408;9.968;2023-07-31T06:29:48;18.50;90.80
28071;DHT22;15383;48.408;9.968;2023-07-31T06:32:14;18.50;91.10
28071;DHT22;15383;48.408;9.968;2023-07-31T06:34:40;18.50;91.00
28071;DHT22;15383;48.408;9.968;2023-07-31T06:37:05;18.40;90.90
28071;DHT22;15383;48.408;9.968;2023-07-31T06:39:31;18.40;91.20
28071;DHT22;15383;48.408;9.968;2023-07-31T06:41:57;18.40;91.20
28071;DHT22;15383;48.408;9.968;2023-07-31T06:44:22;18.40;91.20
28071;DHT22;15383;48.408;9.968;2023-07-31T06:46:48;18.30;91.10
28071;DHT22;15383;48.408;9.968;2023-07-31T06:49:13;18.30;91.10
28071;DHT22;15383;48.408;9.968;2023-07-31T06:51:41;18.20;91.10
28071;DHT22;15383;48.408;9.968;2023-07-31T06:54:07;18.30;91.30
28071;DHT22;15383;48.408;9.968;2023-07-31T06:56:33;18.30;91.30
28071;DHT22;15383;48.408;9.968;2023-07-31T06:58:59;18.20;91.40
28071;DHT22;15383;48.408;9.968;2023-07-31T07:01:25;18.20;91.50
28071;DHT22;15383;48.408;9.968;2023-07-31T07:03:51;18.20;91.50
28071;DHT22;15383;48.408;9.968;2023-07-31T07:06:21;18.20;91.50
28071;DHT22;15383;48.408;9.968;2023-07-31T07:08:48;18.20;91.60
28071;DHT22;15383;48.408;9.968;2023-07-31T07:11:13;18.10;91.50
28071;DHT22;15383;48.408;9.968;2023-07-31T07:13:42;18.10;91.50
28071;DHT22;15383;48.408;9.968;2023-07-31T07:16:08;18.40;91.70
28071;DHT22;15383;48.408;9.968;2023-07-31T07:18:35;18.10;91.60
28071;DHT22;15383;48.408;9.968;2023-07-31T07:21:01;18.00;91.50
28071;DHT22;15383;48.408;9.968;2023-07-31T07:23:27;18.10;91.50
28071;DHT22;15383;48.408;9.968;2023-07-31T07:25:53;18.10;91.40
28071;DHT22;15383;48.408;9.968;2023-07-31T07:28:19;18.10;91.40
28071;DHT22;15383;48.408;9.968;2023-07-31T07:30:45;18.10;91.50
28071;DHT22;15383;48.408;9.968;2023-07-31T07:33:10;18.10;91.70
28071;DHT22;15383;48.408;9.968;2023-07-31T07:35:37;18.00;91.60
28071;DHT22;15383;48.408;9.968;2023-07-31T07:38:06;18.10;91.60
28071;DHT22;15383;48.408;9.968;2023-07-31T07:40:41;18.10;91.70
28071;DHT22;15383;48.408;9.968;2023-07-31T07:43:07;18.10;91.80
28071;DHT22;15383;48.408;9.968;2023-07-31T07:45:32;18.20;91.80
28071;DHT22;15383;48.408;9.968;2023-07-31T07:47:58;18.10;92.00
28071;DHT22;15383;48.408;9.968;2023-07-31T07:50:24;18.20;91.80
28071;DHT22;15383;48.408;9.968;2023-07-31T07:52:50;18.20;91.60
28071;DHT22;15383;48.408;9.968;2023-07-31T07:55:16;18.20;91.60
28071;DHT22;15383;48.408;9.968;2023-07-31T07:57:42;18.30;91.70
28071;DHT22;15383;48.408;9.968;2023-07-31T08:00:09;18.30;91.80
28071;DHT22;15383;48.408;9.968;2023-07-31T08:02:35;18.30;91.60
28071;DHT22;15383;48.408;9.968;2023-07-31T08:05:01;18.30;91.60
28071;DHT22;15383;48.408;9.968;2023-07-31T08:07:27;18.40;91.80
28071;DHT22;15383;48.408;9.968;2023-07-31T08:09:52;18.40;91.80
28071;DHT22;15383;48.408;9.968;2023-07-31T08:12:18;18.40;91.80
28071;DHT22;15383;48.408;9.968;2023-07-31T08:14:43;18.40;91.70
28071;DHT22;15383;48.408;9.968;2023-07-31T08:17:09;18.40;91.60
28071;DHT22;15383;48.408;9.968;2023-07-31T08:19:35;18.40;91.40
28071;DHT22;15383;48.408;9.968;2023-07-31T08:22:00;18.40;91.60
28071;DHT22;15383;48.408;9.968;2023-07-31T08:24:26;18.50;91.50
28071;DHT22;15383;48.408;9.968;2023-07-31T08:26:51;18.50;91.60
28071;DHT22;15383;48.408;9.968;2023-07-31T08:32:39;18.50;91.50
28071;DHT22;15383;48.408;9.968;2023-07-31T08:35:05;18.50;91.30
28071;DHT22;15383;48.408;9.968;2023-07-31T08:37:31;18.50;91.60
28071;DHT22;15383;48.408;9.968;2023-07-31T08:39:56;18.50;91.20
28071;DHT22;15383;48.408;9.968;2023-07-31T08:42:23;18.60;91.30
28071;DHT22;15383;48.408;9.968;2023-07-31T08:44:50;18.70;91.10
28071;DHT22;15383;48.408;9.968;2023-07-31T08:47:16;18.70;91.00
28071;DHT22;15383;48.408;9.968;2023-07-31T08:49:42;18.70;90.90
28071;DHT22;15383;48.408;9.968;2023-07-31T08:52:08;18.80;90.90
28071;DHT22;15383;48.408;9.968;2023-07-31T08:54:34;18.80;90.90
28071;DHT22;15383;48.408;9.968;2023-07-31T08:57:00;18.90;90.90
28071;DHT22;15383;48.408;9.968;2023-07-31T08:59:29;18.90;90.80
28071;DHT22;15383;48.408;9.968;2023-07-31T09:01:58;18.90;90.90
28071;DHT22;15383;48.408;9.968;2023-07-31T09:04:26;19.00;90.80
28071;DHT22;15383;48.408;9.968;2023-07-31T09:06:57;18.90;90.70
28071;DHT22;15383;48.408;9.968;2023-07-31T09:09:25;18.90;90.80
28071;DHT22;15383;48.408;9.968;2023-07-31T09:11:51;19.00;90.70
28071;DHT22;15383;48.408;9.968;2023-07-31T09:14:17;19.10;90.80
28071;DHT22;15383;48.408;9.968;2023-07-31T09:16:58;19.10;91.00
28071;DHT22;15383;48.408;9.968;2023-07-31T09:19:33;19.20;90.90
28071;DHT22;15383;48.408;9.968;2023-07-31T09:21:59;19.20;91.40
28071;DHT22;15383;48.408;9.968;2023-07-31T09:24:27;19.20;90.70
28071;DHT22;15383;48.408;9.968;2023-07-31T09:26:57;19.20;90.40
28071;DHT22;15383;48.408;9.968;2023-07-31T09:29:24;19.20;90.50
28071;DHT22;15383;48.408;9.968;2023-07-31T09:31:52;19.20;91.00
28071;DHT22;15383;48.408;9.968;2023-07-31T09:34:19;19.20;90.80
28071;DHT22;15383;48.408;9.968;2023-07-31T09:36:49;19.30;90.80
28071;DHT22;15383;48.408;9.968;2023-07-31T09:39:16;19.30;90.60
28071;DHT22;15383;48.408;9.968;2023-07-31T09:41:44;19.20;90.60
28071;DHT22;15383;48.408;9.968;2023-07-31T09:44:11;19.30;90.20
28071;DHT22;15383;48.408;9.968;2023-07-31T09:46:37;19.30;90.20
28071;DHT22;15383;48.408;9.968;2023-07-31T09:49:10;19.20;90.00
28071;DHT22;15383;48.408;9.968;2023-07-31T09:51:37;19.30;89.40
28071;DHT22;15383;48.408;9.968;2023-07-31T09:54:09;19.30;89.60
28071;DHT22;15383;48.408;9.968;2023-07-31T09:56:44;19.30;89.10
28071;DHT22;15383;48.408;9.968;2023-07-31T09:59:15;19.30;89.20
28071;DHT22;15383;48.408;9.968;2023-07-31T10:01:42;19.30;89.50
28071;DHT22;15383;48.408;9.968;2023-07-31T10:04:12;19.30;89.20
28071;DHT22;15383;48.408;9.968;2023-07-31T10:06:40;19.30;89.60
28071;DHT22;15383;48.408;9.968;2023-07-31T10:09:07;19.30;89.50
28071;DHT22;15383;48.408;9.968;2023-07-31T10:11:41;19.30;89.50
28071;DHT22;15383;48.408;9.968;2023-07-31T10:14:09;19.30;88.80
28071;DHT22;15383;48.408;9.968;2023-07-31T10:16:38;19.40;89.00
28071;DHT22;15383;48.408;9.968;2023-07-31T10:19:05;19.50;88.50
28071;DHT22;15383;48.408;9.968;2023-07-31T10:21:31;19.60;88.80
28071;DHT22;15383;48.408;9.968;2023-07-31T10:24:01;19.60;88.90
28071;DHT22;15383;48.408;9.968;2023-07-31T10:26:28;19.70;89.60
28071;DHT22;15383;48.408;9.968;2023-07-31T10:28:55;19.70;90.00
28071;DHT22;15383;48.408;9.968;2023-07-31T10:31:21;19.70;89.50
28071;DHT22;15383;48.408;9.968;2023-07-31T10:33:48;19.70;88.60
28071;DHT22;15383;48.408;9.968;2023-07-31T10:36:16;19.70;88.00
28071;DHT22;15383;48.408;9.968;2023-07-31T10:38:42;19.60;87.80
28071;DHT22;15383;48.408;9.968;2023-07-31T10:41:11;19.60;88.10
28071;DHT22;15383;48.408;9.968;2023-07-31T10:43:40;19.70;89.00
28071;DHT22;15383;48.408;9.968;2023-07-31T10:46:12;19.70;89.40
28071;DHT22;15383;48.408;9.968;2023-07-31T10:48:39;19.80;89.10
28071;DHT22;15383;48.408;9.968;2023-07-31T10:51:08;19.80;89.10
28071;DHT22;15383;48.408;9.968;2023-07-31T10:53:35;19.80;89.20
28071;DHT22;15383;48.408;9.968;2023-07-31T10:56:08;19.80;89.60
28071;DHT22;15383;48.408;9.968;2023-07-31T10:58:36;19.80;88.50
28071;DHT22;15383;48.408;9.968;2023-07-31T11:01:03;19.80;88.80
28071;DHT22;15383;48.408;9.968;2023-07-31T11:03:48;19.90;89.60
28071;DHT22;15383;48.408;9.968;2023-07-31T11:06:16;19.90;88.50
28071;DHT22;15383;48.408;9.968;2023-07-31T11:08:44;20.00;88.50
28071;DHT22;15383;48.408;9.968;2023-07-31T11:11:14;20.00;88.90
28071;DHT22;15383;48.408;9.968;2023-07-31T11:13:47;20.00;87.60
28071;DHT22;15383;48.408;9.968;2023-07-31T11:16:24;19.90;88.00
28071;DHT22;15383;48.408;9.968;2023-07-31T11:18:50;19.90;88.20
28071;DHT22;15383;48.408;9.968;2023-07-31T11:21:24;19.90;86.90
28071;DHT22;15383;48.408;9.968;2023-07-31T11:23:57;19.90;87.00
28071;DHT22;15383;48.408;9.968;2023-07-31T11:26:23;19.80;86.90
28071;DHT22;15383;48.408;9.968;2023-07-31T11:28:50;19.80;86.80
28071;DHT22;15383;48.408;9.968;2023-07-31T11:31:17;19.90;87.40
28071;DHT22;15383;48.408;9.968;2023-07-31T11:33:43;20.00;87.00
28071;DHT22;15383;48.408;9.968;2023-07-31T11:36:20;19.90;87.60
28071;DHT22;15383;48.408;9.968;2023-07-31T11:38:46;20.00;87.70
28071;DHT22;15383;48.408;9.968;2023-07-31T11:41:14;20.10;89.30
28071;DHT22;15383;48.408;9.968;2023-07-31T11:43:39;20.20;89.30
28071;DHT22;15383;48.408;9.968;2023-07-31T11:46:05;20.20;87.60
28071;DHT22;15383;48.408;9.968;2023-07-31T11:48:36;20.30;87.50
28071;DHT22;15383;48.408;9.968;2023-07-31T11:51:04;20.30;87.10
28071;DHT22;15383;48.408;9.968;2023-07-31T11:53:47;20.10;86.80
28071;DHT22;15383;48.408;9.968;2023-07-31T11:56:18;20.10;86.20
28071;DHT22;15383;48.408;9.968;2023-07-31T11:58:46;20.00;86.50
28071;DHT22;15383;48.408;9.968;2023-07-31T12:01:15;19.90;86.60
28071;DHT22;15383;48.408;9.968;2023-07-31T12:03:41;19.90;86.50
28071;DHT22;15383;48.408;9.968;2023-07-31T12:06:08;19.90;86.10
28071;DHT22;15383;48.408;9.968;2023-07-31T12:08:34;19.80;86.10
28071;DHT22;15383;48.408;9.968;2023-07-31T12:11:05;19.80;85.30
28071;DHT22;15383;48.408;9.968;2023-07-31T12:13:32;19.80;86.70
28071;DHT22;15383;48.408;9.968;2023-07-31T12:16:02;19.70;85.90
28071;DHT22;15383;48.408;9.968;2023-07-31T12:18:30;19.80;86.60
28071;DHT22;15383;48.408;9.968;2023-07-31T12:21:00;19.70;86.70
28071;DHT22;15383;48.408;9.968;2023-07-31T12:23:27;19.70;86.90
28071;DHT22;15383;48.408;9.968;2023-07-31T12:26:19;19.80;86.90
28071;DHT22;15383;48.408;9.968;2023-07-31T12:28:47;19.80;86.30
28071;DHT22;15383;48.408;9.968;2023-07-31T12:31:21;19.80;86.80
28071;DHT22;15383;48.408;9.968;2023-07-31T12:33:48;19.80;86.70
28071;DHT22;15383;48.408;9.968;2023-07-31T12:36:17;19.80;86.20
28071;DHT22;15383;48.408;9.968;2023-07-31T12:38:43;19.70;86.00
28071;DHT22;15383;48.408;9.968;2023-07-31T12:41:09;19.80;86.10
28071;DHT22;15383;48.408;9.968;2023-07-31T12:43:36;19.70;86.20
28071;DHT22;15383;48.408;9.968;2023-07-31T12:46:03;19.70;87.10
28071;DHT22;15383;48.408;9.968;2023-07-31T12:48:29;19.70;86.90
28071;DHT22;15383;48.408;9.968;2023-07-31T12:50:55;19.70;86.00
28071;DHT22;15383;48.408;9.968;2023-07-31T12:53:20;19.70;86.60
28071;DHT22;15383;48.408;9.968;2023-07-31T12:55:46;19.70;87.40
28071;DHT22;15383;48.408;9.968;2023-07-31T12:58:12;19.70;87.10
28071;DHT22;15383;48.408;9.968;2023-07-31T13:00:37;19.70;86.70
28071;DHT22;15383;48.408;9.968;2023-07-31T13:03:07;19.70;87.30
28071;DHT22;15383;48.408;9.968;2023-07-31T13:05:33;19.70;87.20
28071;DHT22;15383;48.408;9.968;2023-07-31T13:07:58;19.70;88.20
28071;DHT22;15383;48.408;9.968;2023-07-31T13:10:24;19.70;87.50
28071;DHT22;15383;48.408;9.968;2023-07-31T13:12:52;19.70;88.30
28071;DHT22;15383;48.408;9.968;2023-07-31T13:15:17;19.70;87.70
28071;DHT22;15383;48.408;9.968;2023-07-31T13:17:43;19.70;87.80
28071;DHT22;15383;48.408;9.968;2023-07-31T13:20:09;19.70;88.20
28071;DHT22;15383;48.408;9.968;2023-07-31T13:22:35;19.60;87.30
28071;DHT22;15383;48.408;9.968;2023-07-31T13:25:01;19.60;87.70
28071;DHT22;15383;48.408;9.968;2023-07-31T13:27:26;19.60;88.40
28071;DHT22;15383;48.408;9.968;2023-07-31T13:29:52;19.60;89.10
28071;DHT22;15383;48.408;9.968;2023-07-31T13:32:19;19.60;89.90
28071;DHT22;15383;48.408;9.968;2023-07-31T13:34:48;19.60;90.80
28071;DHT22;15383;48.408;9.968;2023-07-31T13:37:14;19.60;90.50
28071;DHT22;15383;48.408;9.968;2023-07-31T13:39:40;19.70;90.60
28071;DHT22;15383;48.408;9.968;2023-07-31T13:42:07;19.70;90.60
28071;DHT22;15383;48.408;9.968;2023-07-31T13:44:39;19.70;90.30
28071;DHT22;15383;48.408;9.968;2023-07-31T13:47:05;19.70;90.20
28071;DHT22;15383;48.408;9.968;2023-07-31T13:49:31;19.70;90.70
28071;DHT22;15383;48.408;9.968;2023-07-31T13:51:57;19.70;90.30
28071;DHT22;15383;48.408;9.968;2023-07-31T13:54:23;19.90;90.20
28071;DHT22;15383;48.408;9.968;2023-07-31T13:56:49;20.00;89.90
28071;DHT22;15383;48.408;9.968;2023-07-31T13:59:15;20.00;90.00
28071;DHT22;15383;48.408;9.968;2023-07-31T14:01:42;20.00;89.80
28071;DHT22;15383;48.408;9.968;2023-07-31T14:04:08;20.00;89.50
28071;DHT22;15383;48.408;9.968;2023-07-31T14:06:34;20.00;88.50
28071;DHT22;15383;48.408;9.968;2023-07-31T14:09:00;19.90;87.40
28071;DHT22;15383;48.408;9.968;2023-07-31T14:11:26;19.90;88.40
28071;DHT22;15383;48.408;9.968;2023-07-31T14:13:52;19.90;88.60
28071;DHT22;15383;48.408;9.968;2023-07-31T14:16:17;19.90;88.50
28071;DHT22;15383;48.408;9.968;2023-07-31T14:18:43;19.90;88.70
28071;DHT22;15383;48.408;9.968;2023-07-31T14:21:11;19.90;88.00
28071;DHT22;15383;48.408;9.968;2023-07-31T14:23:36;19.90;87.70
28071;DHT22;15383;48.408;9.968;2023-07-31T14:26:02;19.90;88.60
28071;DHT22;15383;48.408;9.968;2023-07-31T14:28:27;19.80;88.30
28071;DHT22;15383;48.408;9.968;2023-07-31T14:30:53;19.90;87.80
28071;DHT22;15383;48.408;9.968;2023-07-31T14:33:18;19.90;88.40
28071;DHT22;15383;48.408;9.968;2023-07-31T14:35:44;19.90;87.70
28071;DHT22;15383;48.408;9.968;2023-07-31T14:38:10;19.90;87.00
28071;DHT22;15383;48.408;9.968;2023-07-31T14:40:35;20.00;87.50
28071;DHT22;15383;48.408;9.968;2023-07-31T14:43:02;20.00;87.50
28071;DHT22;15383;48.408;9.968;2023-07-31T14:45:27;20.00;88.40
28071;DHT22;15383;48.408;9.968;2023-07-31T14:47:53;20.10;89.00
28071;DHT22;15383;48.408;9.968;2023-07-31T14:50:20;20.10;89.50
28071;DHT22;15383;48.408;9.968;2023-07-31T14:52:47;20.20;90.10
28071;DHT22;15383;48.408;9.968;2023-07-31T14:55:13;20.20;89.00
28071;DHT22;15383;48.408;9.968;2023-07-31T14:57:38;20.20;89.30
28071;DHT22;15383;48.408;9.968;2023-07-31T15:00:04;20.10;89.30
28071;DHT22;15383;48.408;9.968;2023-07-31T15:02:34;20.10;89.20
28071;DHT22;15383;48.408;9.968;2023-07-31T15:05:00;20.10;88.50
28071;DHT22;15383;48.408;9.968;2023-07-31T15:07:25;20.00;88.70
28071;DHT22;15383;48.408;9.968;2023-07-31T15:09:51;20.00;89.40
28071;DHT22;15383;48.408;9.968;2023-07-31T15:12:17;20.00;89.00
28071;DHT22;15383;48.408;9.968;2023-07-31T15:14:42;20.00;90.00
28071;DHT22;15383;48.408;9.968;2023-07-31T15:17:08;20.10;89.30
28071;DHT22;15383;48.408;9.968;2023-07-31T15:19:34;20.10;89.70
28071;DHT22;15383;48.408;9.968;2023-07-31T15:22:02;20.10;89.30
28071;DHT22;15383;48.408;9.968;2023-07-31T15:24:28;20.10;89.10
28071;DHT22;15383;48.408;9.968;2023-07-31T15:26:54;20.10;88.50
28071;DHT22;15383;48.408;9.968;2023-07-31T15:29:20;20.20;88.90
28071;DHT22;15383;48.408;9.968;2023-07-31T15:31:46;20.10;88.50
28071;DHT22;15383;48.408;9.968;2023-07-31T15:34:13;20.10;87.60
28071;DHT22;15383;48.408;9.968;2023-07-31T15:36:38;20.10;87.40